Time;durP1;ratioP1;P1;durP2;ratioP2;P2;SDS_P1;SDS_P2;PMS_P1;PMS_P2;Temp;Humidity;BMP_temperature;BMP_pressure;BME280_temperature;BME280_humidity;BME280_pressure;Samples;Min_cycle;Max_cycle;Signal;HPM_P1;HPM_P2
2024/03/15 00:02:16;;;;;;;19.75;10.85;;;;;;;;;;6249557;22;20011;-84
2024/03/15 00:04:43;;;;;;;15.30;9.57;;;;;;;;;;6249636;22;20031;-83
2024/03/15 00:07:10;;;;;;;21.33;10.65;;;;;;;;;;6249804;22;20325;-84
2024/03/15 00:09:37;;;;;;;16.75;9.68;;;;;;;;;;6251408;22;20084;-84
2024/03/15 00:12:05;;;;;;;16.40;9.90;;;;;;;;;;6250024;22;20033;-84
2024/03/15 00:14:32;;;;;;;17.30;10.48;;;;;;;;;;6250009;22;20054;-84
2024/03/15 00:17:00;;;;;;;18.00;11.20;;;;;;;;;;6249198;22;20015;-83
2024/03/15 00:19:28;;;;;;;17.42;10.15;;;;;;;;;;6249466;22;20356;-83
2024/03/15 00:21:55;;;;;;;18.23;10.32;;;;;;;;;;6252403;22;20517;-86
2024/03/15 00:24:22;;;;;;;15.20;10.38;;;;;;;;;;6255640;22;20020;-86
2024/03/15 00:26:50;;;;;;;21.80;11.25;;;;;;;;;;6256620;22;20020;-86
2024/03/15 00:29:19;;;;;;;21.33;10.98;;;;;;;;;;6255249;22;20079;-85
2024/03/15 00:31:47;;;;;;;16.52;10.43;;;;;;;;;;6282762;22;20016;-85
2024/03/15 00:34:14;;;;;;;19.95;10.93;;;;;;;;;;6282187;22;20024;-85
2024/03/15 00:36:44;;;;;;;16.45;10.98;;;;;;;;;;6281618;22;20379;-85
2024/03/15 00:39:11;;;;;;;18.38;10.65;;;;;;;;;;6253836;22;20028;-84
2024/03/15 00:41:38;;;;;;;16.00;10.65;;;;;;;;;;6254257;22;20020;-85
2024/03/15 00:44:06;;;;;;;23.50;11.32;;;;;;;;;;6253940;22;20023;-85
2024/03/15 00:46:34;;;;;;;23.50;11.27;;;;;;;;;;6254227;22;20024;-85
2024/03/15 00:49:02;;;;;;;20.00;10.38;;;;;;;;;;6254162;22;20533;-85
2024/03/15 00:51:30;;;;;;;18.88;10.98;;;;;;;;;;6254138;22;20016;-85
2024/03/15 00:53:57;;;;;;;22.42;10.82;;;;;;;;;;6253789;22;20389;-84
2024/03/15 00:56:24;;;;;;;19.48;10.95;;;;;;;;;;6253998;22;20023;-85
2024/03/15 00:59:04;;;;;;;22.55;11.32;;;;;;;;;;6254123;22;20020;-85
2024/03/15 01:01:31;;;;;;;20.58;10.98;;;;;;;;;;6253707;22;20019;-84
2024/03/15 01:03:58;;;;;;;19.73;11.13;;;;;;;;;;6253350;22;20024;-84
2024/03/15 01:06:27;;;;;;;20.52;11.07;;;;;;;;;;6252812;22;20399;-85
2024/03/15 01:08:54;;;;;;;18.90;11.25;;;;;;;;;;6280449;22;20046;-84
2024/03/15 01:11:22;;;;;;;19.42;11.07;;;;;;;;;;6252523;22;20020;-84
2024/03/15 01:13:55;;;;;;;26.30;12.38;;;;;;;;;;6279939;22;20020;-84
2024/03/15 01:16:33;;;;;;;20.98;10.82;;;;;;;;;;6279201;22;20027;-85
2024/03/15 01:19:01;;;;;;;23.92;11.93;;;;;;;;;;6252541;22;20463;-84
2024/03/15 01:21:28;;;;;;;21.65;12.20;;;;;;;;;;6252676;22;20020;-84
2024/03/15 01:23:55;;;;;;;22.67;11.48;;;;;;;;;;6251396;22;20012;-85
2024/03/15 01:26:23;;;;;;;20.10;10.63;;;;;;;;;;6252208;22;20023;-84
2024/03/15 01:28:51;;;;;;;21.67;12.23;;;;;;;;;;6278506;22;20019;-84
2024/03/15 01:31:18;;;;;;;21.98;11.57;;;;;;;;;;6279155;22;20020;-85
2024/03/15 01:33:46;;;;;;;20.63;11.23;;;;;;;;;;6251896;22;20016;-84
2024/03/15 01:36:14;;;;;;;22.95;11.82;;;;;;;;;;6278926;22;20336;-84
2024/03/15 01:38:41;;;;;;;27.00;12.90;;;;;;;;;;6278399;22;20025;-83
2024/03/15 01:41:08;;;;;;;23.17;12.88;;;;;;;;;;6251539;22;20360;-84
2024/03/15 01:43:57;;;;;;;23.05;12.18;;;;;;;;;;6278221;22;20030;-84
2024/03/15 01:46:25;;;;;;;26.10;12.50;;;;;;;;;;6250889;22;20016;-83
2024/03/15 01:48:52;;;;;;;24.20;12.45;;;;;;;;;;6251126;22;20077;-84
2024/03/15 01:51:20;;;;;;;24.27;12.07;;;;;;;;;;6251188;22;20099;-83
2024/03/15 01:53:53;;;;;;;30.33;13.50;;;;;;;;;;6277571;22;20026;-83
2024/03/15 01:56:22;;;;;;;30.38;13.00;;;;;;;;;;6251146;22;20383;-83
2024/03/15 01:58:51;;;;;;;33.85;13.95;;;;;;;;;;6277290;22;20020;-83
2024/03/15 02:01:18;;;;;;;26.52;12.57;;;;;;;;;;6250562;22;20022;-84
2024/03/15 02:03:47;;;;;;;27.30;13.18;;;;;;;;;;6250203;22;20027;-83
2024/03/15 02:06:15;;;;;;;24.85;13.48;;;;;;;;;;6251338;22;20098;-84
2024/03/15 02:08:42;;;;;;;34.78;15.05;;;;;;;;;;6277593;22;20024;-84
2024/03/15 02:11:10;;;;;;;26.27;14.18;;;;;;;;;;6250194;22;20016;-84
2024/03/15 02:13:39;;;;;;;27.30;13.45;;;;;;;;;;6250675;22;20054;-84
2024/03/15 02:16:14;;;;;;;27.08;14.55;;;;;;;;;;6277277;22;20073;-84
2024/03/15 02:18:43;;;;;;;33.08;14.13;;;;;;;;;;6250953;22;20023;-83
2024/03/15 02:21:23;;;;;;;31.00;15.02;;;;;;;;;;6277089;22;20360;-84
2024/03/15 02:23:50;;;;;;;28.75;14.77;;;;;;;;;;6250407;22;20024;-83
2024/03/15 02:26:22;;;;;;;25.80;13.23;;;;;;;;;;6250665;22;20020;-84
2024/03/15 02:28:49;;;;;;;33.42;14.45;;;;;;;;;;6250603;22;20023;-83
2024/03/15 02:31:16;;;;;;;35.72;15.98;;;;;;;;;;6249994;22;20012;-84
2024/03/15 02:33:44;;;;;;;29.13;14.48;;;;;;;;;;6277116;22;20066;-83
2024/03/15 02:36:12;;;;;;;33.40;14.45;;;;;;;;;;6251036;22;20020;-83
2024/03/15 02:38:39;;;;;;;29.48;14.55;;;;;;;;;;6250638;22;20347;-84
2024/03/15 02:41:09;;;;;;;26.10;14.77;;;;;;;;;;6277200;22;20329;-83
2024/03/15 02:43:37;;;;;;;41.92;17.35;;;;;;;;;;6268229;22;20043;-84
2024/03/15 02:46:23;;;;;;;38.75;17.77;;;;;;;;;;6277603;22;20050;-84
2024/03/15 02:48:50;;;;;;;39.33;17.83;;;;;;;;;;6272431;22;20023;-85
2024/03/15 02:51:17;;;;;;;29.77;15.07;;;;;;;;;;6264379;22;20018;-84
2024/03/15 02:53:45;;;;;;;41.53;18.02;;;;;;;;;;6286274;22;20399;-85
2024/03/15 02:56:13;;;;;;;40.95;18.38;;;;;;;;;;6254796;22;20016;-84
2024/03/15 02:58:41;;;;;;;39.58;19.05;;;;;;;;;;6250447;22;20090;-84
2024/03/15 03:01:08;;;;;;;46.10;18.88;;;;;;;;;;6276674;22;20027;-84
2024/03/15 03:03:36;;;;;;;46.15;18.95;;;;;;;;;;6250313;22;20030;-83
2024/03/15 03:06:07;;;;;;;35.55;18.15;;;;;;;;;;6250852;22;20073;-84
2024/03/15 03:08:35;;;;;;;43.03;19.02;;;;;;;;;;6279100;22;20115;-83
2024/03/15 03:11:11;;;;;;;42.58;18.92;;;;;;;;;;6277313;22;20020;-84
2024/03/15 03:13:38;;;;;;;36.17;17.52;;;;;;;;;;6250306;22;20016;-84
2024/03/15 03:16:05;;;;;;;35.60;17.35;;;;;;;;;;6250727;22;20022;-84
2024/03/15 03:18:35;;;;;;;42.85;19.02;;;;;;;;;;6276812;22;20015;-83
2024/03/15 03:21:02;;;;;;;39.00;17.92;;;;;;;;;;6250324;22;20026;-84
2024/03/15 03:23:34;;;;;;;48.30;19.35;;;;;;;;;;6249474;22;20023;-83
2024/03/15 03:26:03;;;;;;;41.28;16.98;;;;;;;;;;6276827;22;20028;-83
2024/03/15 03:28:30;;;;;;;38.85;16.20;;;;;;;;;;6250242;22;20027;-83
2024/03/15 03:31:25;;;;;;;35.42;15.48;;;;;;;;;;6250070;22;20093;-83
2024/03/15 03:33:52;;;;;;;39.45;16.98;;;;;;;;;;6251247;22;20050;-85
2024/03/15 03:36:22;;;;;;;35.55;15.75;;;;;;;;;;6256103;22;20055;-85
2024/03/15 03:38:50;;;;;;;43.95;17.17;;;;;;;;;;6282497;22;20094;-85
2024/03/15 03:41:20;;;;;;;34.03;15.70;;;;;;;;;;6254279;22;20077;-85
2024/03/15 03:43:47;;;;;;;37.22;17.00;;;;;;;;;;6254297;22;20145;-85
2024/03/15 03:46:15;;;;;;;38.00;16.95;;;;;;;;;;6254440;22;20023;-85
2024/03/15 03:48:42;;;;;;;36.17;17.05;;;;;;;;;;6253984;22;20499;-84
2024/03/15 03:51:10;;;;;;;36.08;15.73;;;;;;;;;;6279709;22;20343;-85
2024/03/15 03:53:37;;;;;;;37.58;15.85;;;;;;;;;;6279840;22;20020;-84
2024/03/15 03:56:04;;;;;;;33.85;15.95;;;;;;;;;;6253649;22;20020;-84
2024/03/15 03:58:33;;;;;;;37.88;15.70;;;;;;;;;;6253076;22;20026;-84
2024/03/15 04:01:00;;;;;;;43.47;17.15;;;;;;;;;;6279206;22;20023;-84
2024/03/15 04:03:28;;;;;;;40.40;17.30;;;;;;;;;;6253995;22;20034;-84
2024/03/15 04:05:55;;;;;;;37.20;16.23;;;;;;;;;;6280848;22;20036;-84
2024/03/15 04:08:22;;;;;;;40.85;17.05;;;;;;;;;;6280838;22;20526;-84
2024/03/15 04:10:49;;;;;;;39.15;16.77;;;;;;;;;;6252577;22;20341;-83
2024/03/15 04:13:20;;;;;;;38.17;17.85;;;;;;;;;;6278799;22;20073;-83
2024/03/15 04:15:47;;;;;;;39.08;17.35;;;;;;;;;;6251427;22;20015;-82
2024/03/15 04:18:15;;;;;;;45.88;18.67;;;;;;;;;;6278216;22;20026;-83
2024/03/15 04:20:46;;;;;;;40.13;17.30;;;;;;;;;;6251564;22;20015;-83
2024/03/15 04:23:14;;;;;;;48.72;18.45;;;;;;;;;;6251704;22;20020;-83
2024/03/15 04:25:44;;;;;;;41.13;18.20;;;;;;;;;;6251831;22;20103;-83
2024/03/15 04:28:11;;;;;;;55.42;20.58;;;;;;;;;;6252062;22;20016;-83
2024/03/15 04:30:41;;;;;;;58.88;20.13;;;;;;;;;;6251395;22;20015;-83
2024/03/15 04:33:09;;;;;;;65.95;21.15;;;;;;;;;;6251196;22;20468;-83
2024/03/15 04:35:37;;;;;;;65.20;22.35;;;;;;;;;;6278644;22;20024;-83
2024/03/15 04:38:04;;;;;;;66.15;22.02;;;;;;;;;;6252720;22;20023;-83
2024/03/15 04:40:31;;;;;;;62.00;21.75;;;;;;;;;;6252198;22;20517;-83
2024/03/15 04:42:58;;;;;;;57.20;21.50;;;;;;;;;;6252106;22;20015;-83
2024/03/15 04:45:26;;;;;;;59.45;22.77;;;;;;;;;;6251512;22;20395;-83
2024/03/15 04:47:54;;;;;;;65.00;23.08;;;;;;;;;;6277916;22;20091;-83
2024/03/15 04:50:35;;;;;;;51.97;21.98;;;;;;;;;;6251881;22;20016;-83
2024/03/15 04:53:02;;;;;;;42.25;19.05;;;;;;;;;;6278136;22;20020;-84
2024/03/15 04:55:30;;;;;;;55.88;20.45;;;;;;;;;;6251483;22;20069;-83
2024/03/15 04:57:58;;;;;;;50.47;18.52;;;;;;;;;;6251921;22;20015;-84
2024/03/15 05:00:26;;;;;;;68.97;22.13;;;;;;;;;;6278330;22;20042;-83
2024/03/15 05:02:53;;;;;;;65.82;20.58;;;;;;;;;;6251094;22;20015;-83
2024/03/15 05:05:23;;;;;;;51.08;18.98;;;;;;;;;;6251488;22;20490;-83
2024/03/15 05:07:53;;;;;;;44.38;19.27;;;;;;;;;;6251041;22;20077;-83
2024/03/15 05:10:20;;;;;;;47.92;19.52;;;;;;;;;;6251218;22;20065;-83
2024/03/15 05:12:49;;;;;;;52.38;20.02;;;;;;;;;;6250541;22;20333;-83
2024/03/15 05:15:17;;;;;;;56.97;20.42;;;;;;;;;;6251168;22;20016;-83
2024/03/15 05:17:44;;;;;;;51.83;23.33;;;;;;;;;;6277692;22;20016;-83
2024/03/15 05:20:14;;;;;;;57.88;24.83;;;;;;;;;;6250695;22;20012;-83
2024/03/15 05:22:44;;;;;;;63.88;25.80;;;;;;;;;;6251026;22;20483;-85
2024/03/15 05:25:16;;;;;;;74.88;27.17;;;;;;;;;;6251143;22;20023;-84
2024/03/15 05:27:46;;;;;;;66.27;24.80;;;;;;;;;;6251286;22;20399;-83
2024/03/15 05:30:17;;;;;;;66.47;25.67;;;;;;;;;;6251393;22;20023;-84
2024/03/15 05:32:45;;;;;;;77.47;26.45;;;;;;;;;;6250601;22;20015;-82
2024/03/15 05:35:18;;;;;;;58.72;23.13;;;;;;;;;;6277525;22;20062;-83
2024/03/15 05:37:46;;;;;;;74.53;26.13;;;;;;;;;;6251381;22;20024;-84
2024/03/15 05:40:14;;;;;;;60.88;23.80;;;;;;;;;;6251260;22;20012;-83
2024/03/15 05:42:42;;;;;;;56.17;23.90;;;;;;;;;;6278763;22;20026;-83
2024/03/15 05:45:10;;;;;;;54.30;23.33;;;;;;;;;;6251686;22;20024;-83
2024/03/15 05:47:43;;;;;;;65.95;23.75;;;;;;;;;;6278701;22;20337;-84
2024/03/15 05:50:11;;;;;;;79.72;25.90;;;;;;;;;;6252270;22;20027;-83
2024/03/15 05:52:44;;;;;;;76.45;29.77;;;;;;;;;;6278748;22;20016;-83
2024/03/15 05:55:13;;;;;;;;;;;;;;;;;;6279221;22;20016;-84
2024/03/15 05:57:41;;;;;;;66.65;24.17;;;;;;;;;;6278026;22;20335;-83
2024/03/15 06:00:13;;;;;;;91.10;26.83;;;;;;;;;;6251886;22;20094;-83
2024/03/15 06:02:43;;;;;;;84.28;27.67;;;;;;;;;;6279160;22;20041;-83
2024/03/15 06:05:11;;;;;;;78.20;29.50;;;;;;;;;;6252733;22;20023;-83
2024/03/15 06:07:39;;;;;;;72.30;28.17;;;;;;;;;;6253569;22;20082;-83
2024/03/15 06:10:06;;;;;;;83.93;28.33;;;;;;;;;;6279832;22;20023;-84
2024/03/15 06:12:33;;;;;;;74.28;27.73;;;;;;;;;;6253797;22;20016;-84
2024/03/15 06:15:04;;;;;;;65.68;26.70;;;;;;;;;;6251736;22;20026;-83
2024/03/15 06:17:31;;;;;;;106.32;30.13;;;;;;;;;;6277710;22;20019;-83
2024/03/15 06:20:03;;;;;;;101.70;32.63;;;;;;;;;;6251523;22;20027;-83
2024/03/15 06:22:30;;;;;;;108.95;32.75;;;;;;;;;;6251130;22;20447;-83
2024/03/15 06:25:00;;;;;;;87.85;29.50;;;;;;;;;;6251641;22;20023;-83
2024/03/15 06:27:28;;;;;;;84.50;30.15;;;;;;;;;;6277984;22;20020;-83
2024/03/15 06:29:58;;;;;;;93.63;32.50;;;;;;;;;;6251454;22;20077;-83
2024/03/15 06:32:26;;;;;;;108.38;35.55;;;;;;;;;;6251426;22;20020;-84
2024/03/15 06:34:55;;;;;;;137.63;36.90;;;;;;;;;;6251530;22;20066;-83
2024/03/15 06:37:23;;;;;;;159.23;40.25;;;;;;;;;;6251195;22;20063;-84
2024/03/15 06:40:01;;;;;;;107.55;35.15;;;;;;;;;;6278498;22;20016;-83
2024/03/15 06:42:48;;;;;;;125.78;39.45;;;;;;;;;;6251707;22;20490;-83
2024/03/15 06:45:24;;;;;;;151.18;43.00;;;;;;;;;;6250724;22;20023;-83
2024/03/15 06:48:02;;;;;;;100.55;37.45;;;;;;;;;;6254838;22;20047;-85
2024/03/15 06:50:49;;;;;;;124.05;38.90;;;;;;;;;;6257123;22;20071;-85
2024/03/15 06:53:18;;;;;;;168.73;48.20;;;;;;;;;;6255031;22;20019;-85
2024/03/15 06:55:45;;;;;;;215.23;54.75;;;;;;;;;;6275766;22;20016;-83
2024/03/15 06:58:13;;;;;;;157.63;46.67;;;;;;;;;;6250894;22;20011;-83
2024/03/15 07:01:02;;;;;;;118.50;41.72;;;;;;;;;;6252915;22;20087;-83
2024/03/15 07:03:30;;;;;;;156.55;45.17;;;;;;;;;;6250728;22;20470;-83
2024/03/15 07:05:58;;;;;;;149.32;47.67;;;;;;;;;;6251138;22;20069;-83
2024/03/15 07:08:26;;;;;;;132.50;47.40;;;;;;;;;;6250461;22;20212;-82
2024/03/15 07:10:53;;;;;;;196.68;58.00;;;;;;;;;;6249469;22;20022;-83
2024/03/15 07:13:24;;;;;;;137.55;48.53;;;;;;;;;;6224875;22;20022;-82
2024/03/15 07:15:52;;;;;;;124.68;47.60;;;;;;;;;;6248898;22;20015;-83
2024/03/15 07:18:20;;;;;;;231.55;63.35;;;;;;;;;;6250295;22;20417;-82
2024/03/15 07:20:50;;;;;;;138.13;51.28;;;;;;;;;;6248501;22;20016;-82
2024/03/15 07:23:21;;;;;;;253.13;64.78;;;;;;;;;;6249491;22;20035;-82
2024/03/15 07:25:50;;;;;;;209.48;70.63;;;;;;;;;;6249373;22;20229;-83
2024/03/15 07:28:19;;;;;;;153.32;57.58;;;;;;;;;;6249729;22;20463;-83
2024/03/15 07:30:47;;;;;;;178.73;60.10;;;;;;;;;;6250058;22;20067;-83
2024/03/15 07:33:17;;;;;;;173.18;62.13;;;;;;;;;;6250568;22;20026;-82
2024/03/15 07:35:48;;;;;;;142.02;54.45;;;;;;;;;;6250203;22;20460;-82
2024/03/15 07:38:17;;;;;;;130.52;55.47;;;;;;;;;;6255276;22;20031;-84
2024/03/15 07:40:44;;;;;;;124.35;58.15;;;;;;;;;;6254017;22;20023;-83
2024/03/15 07:43:12;;;;;;;73.13;38.50;;;;;;;;;;6254208;22;20026;-84
2024/03/15 07:45:39;;;;;;;58.60;31.17;;;;;;;;;;6254558;22;20019;-83
2024/03/15 07:48:07;;;;;;;57.30;36.03;;;;;;;;;;6282435;22;20030;-84
2024/03/15 07:50:36;;;;;;;48.55;28.20;;;;;;;;;;6254068;22;20403;-83
2024/03/15 07:53:06;;;;;;;35.80;19.23;;;;;;;;;;6254164;22;20023;-83
2024/03/15 07:55:34;;;;;;;26.85;14.32;;;;;;;;;;6279243;22;20081;-82
2024/03/15 07:58:02;;;;;;;17.95;10.68;;;;;;;;;;6251080;22;20015;-83
2024/03/15 08:00:31;;;;;;;24.05;10.52;;;;;;;;;;6251209;22;20096;-84
2024/03/15 08:03:00;;;;;;;10.80;8.50;;;;;;;;;;6251768;22;20055;-83
2024/03/15 08:05:28;;;;;;;9.27;8.15;;;;;;;;;;6250975;22;20082;-84
2024/03/15 08:07:56;;;;;;;8.80;7.50;;;;;;;;;;6251365;22;20507;-83
2024/03/15 08:10:23;;;;;;;9.43;7.40;;;;;;;;;;6251551;22;20023;-83
2024/03/15 08:12:50;;;;;;;9.05;7.32;;;;;;;;;;6250789;22;20065;-83
2024/03/15 08:15:18;;;;;;;7.47;6.22;;;;;;;;;;6251530;22;20463;-82
2024/03/15 08:17:49;;;;;;;8.82;6.40;;;;;;;;;;6277401;22;20081;-83
2024/03/15 08:20:17;;;;;;;6.78;6.00;;;;;;;;;;6251996;22;20023;-83
2024/03/15 08:22:44;;;;;;;9.48;6.72;;;;;;;;;;6250680;22;20022;-86
2024/03/15 08:25:11;;;;;;;8.70;6.15;;;;;;;;;;6251579;22;20026;-84
2024/03/15 08:27:41;;;;;;;7.97;6.70;;;;;;;;;;6277825;22;20463;-83
2024/03/15 08:30:14;;;;;;;10.05;6.00;;;;;;;;;;6278917;22;20026;-84
2024/03/15 08:32:41;;;;;;;6.72;5.95;;;;;;;;;;6250665;22;20019;-82
2024/03/15 08:35:13;;;;;;;7.13;5.25;;;;;;;;;;6251166;22;20035;-85
2024/03/15 08:37:43;;;;;;;6.95;5.40;;;;;;;;;;6276127;22;20095;-84
2024/03/15 08:40:13;;;;;;;5.78;5.20;;;;;;;;;;6249436;22;20019;-84
2024/03/15 08:42:40;;;;;;;8.38;5.28;;;;;;;;;;6248829;22;20133;-80
2024/03/15 08:45:08;;;;;;;5.35;4.85;;;;;;;;;;6278359;22;20024;-82
2024/03/15 08:47:39;;;;;;;6.00;4.43;;;;;;;;;;6251573;22;20089;-84
2024/03/15 08:50:29;;;;;;;5.72;5.15;;;;;;;;;;6254646;22;20022;-83
2024/03/15 08:53:03;;;;;;;6.90;4.97;;;;;;;;;;6251775;22;20039;-83
2024/03/15 08:55:30;;;;;;;5.95;4.90;;;;;;;;;;6251577;22;20490;-82
2024/03/15 08:57:58;;;;;;;8.50;4.78;;;;;;;;;;6251049;22;20077;-82
2024/03/15 09:00:25;;;;;;;5.93;5.00;;;;;;;;;;6251197;22;20015;-82
2024/03/15 09:02:54;;;;;;;5.70;5.07;;;;;;;;;;6278453;22;20122;-82
2024/03/15 09:05:22;;;;;;;4.47;4.03;;;;;;;;;;6251415;22;20359;-83
2024/03/15 09:07:49;;;;;;;4.78;4.20;;;;;;;;;;6252392;22;20034;-82
2024/03/15 09:10:16;;;;;;;4.57;4.00;;;;;;;;;;6252022;22;20024;-83
2024/03/15 09:12:44;;;;;;;4.55;4.00;;;;;;;;;;6252532;22;20051;-83
2024/03/15 09:15:12;;;;;;;5.55;4.40;;;;;;;;;;6277867;22;20020;-83
2024/03/15 09:17:40;;;;;;;15.18;5.30;;;;;;;;;;6252438;22;20090;-83
2024/03/15 09:20:54;;;;;;;4.85;4.45;;;;;;;;;;6252581;22;20030;-84
2024/03/15 09:22:57;;;;;;;6.13;4.22;;;;;;;;;;6259703;22;20030;-83
2024/03/15 09:25:26;;;;;;;18.20;4.60;;;;;;;;;;6279345;22;20407;-83
2024/03/15 09:27:54;;;;;;;4.90;4.10;;;;;;;;;;6277829;22;20541;-81
2024/03/15 09:33:27;;;;;;;14.35;4.30;;;;;;;;;;6277860;22;20372;-84
2024/03/15 09:35:55;;;;;;;19.90;4.53;;;;;;;;;;6277369;22;20015;-84
2024/03/15 09:38:23;;;;;;;5.72;3.88;;;;;;;;;;6251284;22;20122;-86
2024/03/15 09:40:57;;;;;;;7.15;4.03;;;;;;;;;;6250387;22;20066;-84
2024/03/15 09:43:26;;;;;;;3.60;3.15;;;;;;;;;;6250191;22;20471;-85
2024/03/15 09:45:54;;;;;;;3.80;3.40;;;;;;;;;;6255552;22;20103;-84
2024/03/15 09:48:22;;;;;;;3.80;3.50;;;;;;;;;;6250443;22;20036;-85
2024/03/15 09:50:52;;;;;;;2.95;2.67;;;;;;;;;;6277475;22;20026;-84
2024/03/15 09:53:20;;;;;;;3.95;3.55;;;;;;;;;;6250287;22;20043;-85
2024/03/15 09:55:52;;;;;;;4.60;3.17;;;;;;;;;;6249909;22;20023;-85
2024/03/15 09:58:23;;;;;;;5.00;3.50;;;;;;;;;;6250331;22;20486;-85
2024/03/15 10:00:50;;;;;;;4.05;2.90;;;;;;;;;;6250523;22;20016;-84
2024/03/15 10:03:18;;;;;;;3.58;3.25;;;;;;;;;;6277168;22;20023;-80
2024/03/15 10:05:46;;;;;;;3.60;3.30;;;;;;;;;;6250583;22;20360;-84
2024/03/15 10:08:15;;;;;;;18.40;3.85;;;;;;;;;;6250719;22;20020;-85
2024/03/15 10:10:44;;;;;;;4.07;3.40;;;;;;;;;;6269430;22;20015;-82
2024/03/15 10:13:14;;;;;;;4.07;3.63;;;;;;;;;;6278458;22;20035;-83
2024/03/15 10:15:46;;;;;;;3.30;3.05;;;;;;;;;;6276488;22;20038;-84
2024/03/15 10:18:14;;;;;;;4.07;3.55;;;;;;;;;;6290117;22;20099;-83
2024/03/15 10:20:46;;;;;;;4.20;3.80;;;;;;;;;;6264576;22;20020;-85
2024/03/15 10:23:14;;;;;;;4.53;3.80;;;;;;;;;;6262156;22;20035;-85
2024/03/15 10:25:41;;;;;;;4.38;3.97;;;;;;;;;;6265019;22;20019;-85
2024/03/15 10:28:11;;;;;;;5.25;3.78;;;;;;;;;;6251253;22;20046;-86
2024/03/15 10:30:40;;;;;;;3.40;3.10;;;;;;;;;;6274375;22;20102;-85
2024/03/15 10:33:08;;;;;;;5.68;3.50;;;;;;;;;;6247251;22;20367;-83
2024/03/15 10:35:38;;;;;;;4.65;3.10;;;;;;;;;;6248907;22;20024;-85
2024/03/15 10:38:07;;;;;;;2.83;2.63;;;;;;;;;;6249823;22;20062;-84
2024/03/15 10:40:35;;;;;;;3.72;2.55;;;;;;;;;;6272243;22;20603;-82
2024/03/15 10:43:08;;;;;;;3.10;2.90;;;;;;;;;;6274684;22;20020;-85
2024/03/15 10:45:36;;;;;;;3.67;3.35;;;;;;;;;;6276648;22;20020;-85
2024/03/15 10:48:08;;;;;;;4.40;2.88;;;;;;;;;;6250000;22;20402;-84
2024/03/15 10:50:36;;;;;;;4.50;3.20;;;;;;;;;;6249693;22;20070;-84
2024/03/15 10:53:06;;;;;;;4.85;3.20;;;;;;;;;;6276850;22;20065;-83
2024/03/15 10:55:34;;;;;;;5.07;2.67;;;;;;;;;;6249096;22;20050;-84
2024/03/15 10:58:06;;;;;;;2.47;2.28;;;;;;;;;;6249813;22;20481;-87
2024/03/15 11:00:33;;;;;;;2.17;1.90;;;;;;;;;;6274485;22;20016;-85
2024/03/15 11:03:24;;;;;;;6.55;2.13;;;;;;;;;;6250774;22;20058;-87
2024/03/15 11:05:51;;;;;;;26.40;3.00;;;;;;;;;;6249314;22;20094;-86
2024/03/15 11:08:22;;;;;;;10.25;1.77;;;;;;;;;;6249876;22;20042;-85
2024/03/15 11:10:54;;;;;;;5.15;1.90;;;;;;;;;;6252371;22;20027;-83
2024/03/15 11:13:26;;;;;;;2.22;1.33;;;;;;;;;;6251907;22;20100;-82
2024/03/15 11:15:53;;;;;;;23.58;2.83;;;;;;;;;;6277719;22;20019;-86
2024/03/15 11:18:21;;;;;;;18.92;3.03;;;;;;;;;;6278489;22;20019;-85
2024/03/15 11:20:53;;;;;;;11.88;2.40;;;;;;;;;;6250511;22;20020;-86
2024/03/15 11:23:22;;;;;;;4.90;1.73;;;;;;;;;;6248802;22;20019;-86
2024/03/15 11:25:54;;;;;;;2.20;1.98;;;;;;;;;;6249639;22;20058;-85
2024/03/15 11:28:23;;;;;;;4.38;2.05;;;;;;;;;;6249777;22;20020;-85
2024/03/15 11:30:50;;;;;;;7.53;2.03;;;;;;;;;;6276332;22;20103;-83
2024/03/15 11:33:18;;;;;;;15.57;2.35;;;;;;;;;;6249057;22;20043;-85
2024/03/15 11:35:48;;;;;;;3.15;2.00;;;;;;;;;;6249595;22;20020;-85
2024/03/15 11:38:17;;;;;;;36.78;4.38;;;;;;;;;;6249526;22;20020;-84
2024/03/15 11:40:44;;;;;;;2.13;1.50;;;;;;;;;;6276328;22;20023;-86
2024/03/15 11:43:12;;;;;;;1.85;1.40;;;;;;;;;;6249319;22;20023;-86
2024/03/15 11:45:41;;;;;;;3.60;1.50;;;;;;;;;;6276981;22;20020;-87
2024/03/15 11:48:21;;;;;;;6.18;1.80;;;;;;;;;;6249664;22;20436;-86
2024/03/15 11:50:49;;;;;;;1.95;1.73;;;;;;;;;;6275955;22;20106;-84
2024/03/15 11:53:18;;;;;;;2.97;1.70;;;;;;;;;;6276196;22;20079;-86
2024/03/15 11:55:46;;;;;;;1.67;1.52;;;;;;;;;;6249661;22;20022;-85
2024/03/15 11:58:18;;;;;;;2.20;2.00;;;;;;;;;;6248769;22;20038;-82
2024/03/15 12:00:49;;;;;;;2.92;1.88;;;;;;;;;;6276060;22;20022;-86
2024/03/15 12:03:17;;;;;;;2.45;2.15;;;;;;;;;;6276202;22;20095;-86
2024/03/15 12:05:46;;;;;;;7.00;2.10;;;;;;;;;;6250117;22;20024;-85
2024/03/15 12:08:14;;;;;;;3.13;1.85;;;;;;;;;;6249700;22;20019;-86
2024/03/15 12:10:44;;;;;;;4.85;2.45;;;;;;;;;;6249236;22;20555;-87
2024/03/15 12:13:15;;;;;;;5.60;2.38;;;;;;;;;;6248991;22;20366;-87
2024/03/15 12:15:43;;;;;;;7.40;2.60;;;;;;;;;;6249629;22;20016;-86
2024/03/15 12:18:14;;;;;;;9.75;2.42;;;;;;;;;;6249590;22;20027;-87
2024/03/15 12:20:45;;;;;;;5.70;2.13;;;;;;;;;;6248659;22;20086;-86
2024/03/15 12:23:17;;;;;;;3.65;2.13;;;;;;;;;;6251985;22;20019;-85
2024/03/15 12:25:48;;;;;;;5.25;2.30;;;;;;;;;;6278033;22;20023;-84
2024/03/15 12:28:17;;;;;;;3.85;2.10;;;;;;;;;;6277529;22;20107;-86
2024/03/15 12:30:53;;;;;;;3.95;1.95;;;;;;;;;;6251386;22;20019;-86
2024/03/15 12:33:21;;;;;;;4.07;2.10;;;;;;;;;;6250687;22;20016;-86
2024/03/15 12:35:49;;;;;;;9.98;2.00;;;;;;;;;;6250535;22;20024;-85
2024/03/15 12:38:23;;;;;;;6.40;2.30;;;;;;;;;;6277605;22;20016;-84
2024/03/15 12:40:52;;;;;;;12.43;2.35;;;;;;;;;;6251147;22;20106;-86
2024/03/15 12:43:20;;;;;;;2.85;1.92;;;;;;;;;;6252807;22;20024;-82
2024/03/15 12:45:48;;;;;;;2.28;2.00;;;;;;;;;;6253337;22;20020;-86
2024/03/15 12:48:16;;;;;;;3.90;1.98;;;;;;;;;;6277823;22;20341;-85
2024/03/15 12:50:44;;;;;;;2.15;1.80;;;;;;;;;;6277759;22;20026;-86
2024/03/15 12:53:13;;;;;;;2.15;1.95;;;;;;;;;;6249977;22;20015;-84
2024/03/15 12:55:41;;;;;;;8.60;2.78;;;;;;;;;;6251131;22;20020;-86
2024/03/15 12:58:09;;;;;;;3.67;2.20;;;;;;;;;;6250526;22;20026;-86
2024/03/15 13:00:37;;;;;;;5.03;2.75;;;;;;;;;;6277440;22;20356;-86
2024/03/15 13:03:07;;;;;;;2.55;1.85;;;;;;;;;;6250668;22;20016;-86
2024/03/15 13:05:35;;;;;;;3.92;2.00;;;;;;;;;;6251138;22;20471;-81
2024/03/15 13:08:04;;;;;;;3.00;2.10;;;;;;;;;;6277261;22;20069;-85
2024/03/15 13:10:34;;;;;;;4.22;1.98;;;;;;;;;;6251123;22;20348;-86
2024/03/15 13:13:06;;;;;;;4.95;2.20;;;;;;;;;;6250228;22;20020;-86
2024/03/15 13:15:33;;;;;;;2.22;2.03;;;;;;;;;;6250785;22;20070;-85
2024/03/15 13:18:01;;;;;;;4.70;2.38;;;;;;;;;;6250714;22;20065;-85
2024/03/15 13:20:29;;;;;;;2.40;2.03;;;;;;;;;;6277337;22;20293;-86
2024/03/15 13:22:57;;;;;;;1.83;1.70;;;;;;;;;;6250041;22;20452;-86
2024/03/15 13:25:24;;;;;;;2.05;1.88;;;;;;;;;;6277066;22;20024;-87
2024/03/15 13:28:04;;;;;;;6.15;2.28;;;;;;;;;;6252922;22;20064;-86
2024/03/15 13:30:32;;;;;;;3.47;1.50;;;;;;;;;;6250042;22;20487;-86
2024/03/15 13:33:03;;;;;;;4.65;1.92;;;;;;;;;;6249772;22;20471;-86
2024/03/15 13:35:30;;;;;;;40.15;3.80;;;;;;;;;;6254630;22;20031;-88
2024/03/15 13:37:58;;;;;;;3.33;1.42;;;;;;;;;;6271382;22;20463;-87
2024/03/15 13:40:25;;;;;;;1.80;1.35;;;;;;;;;;6251880;22;20015;-86
2024/03/15 13:42:56;;;;;;;1.95;1.48;;;;;;;;;;6251772;22;20026;-86
2024/03/15 13:45:24;;;;;;;3.22;1.17;;;;;;;;;;6278387;22;20018;-86
2024/03/15 13:47:54;;;;;;;2.08;1.20;;;;;;;;;;6276310;22;20022;-87
2024/03/15 13:50:22;;;;;;;2.17;1.08;;;;;;;;;;6249864;22;20394;-85
2024/03/15 13:52:52;;;;;;;8.48;1.30;;;;;;;;;;6278124;22;20028;-86
2024/03/15 13:55:21;;;;;;;5.55;1.00;;;;;;;;;;6250936;22;20487;-87
2024/03/15 13:57:49;;;;;;;2.67;1.00;;;;;;;;;;6277492;22;20022;-86
2024/03/15 14:00:34;;;;;;;3.17;1.35;;;;;;;;;;6251676;22;20053;-86
2024/03/15 14:03:02;;;;;;;3.92;0.80;;;;;;;;;;6254284;22;20024;-84
2024/03/15 14:05:37;;;;;;;1.25;0.98;;;;;;;;;;6250506;22;20023;-86
2024/03/15 14:08:19;;;;;;;2.65;1.00;;;;;;;;;;6277102;22;20024;-85
2024/03/15 14:10:47;;;;;;;2.53;1.00;;;;;;;;;;6276948;22;20070;-86
2024/03/15 14:13:17;;;;;;;2.95;0.90;;;;;;;;;;6252673;22;20408;-85
2024/03/15 14:15:47;;;;;;;2.30;0.75;;;;;;;;;;6251184;22;20405;-84
2024/03/15 14:18:18;;;;;;;4.93;1.55;;;;;;;;;;6255069;22;20016;-86
2024/03/15 14:20:47;;;;;;;1.30;0.80;;;;;;;;;;6252633;22;20012;-85
2024/03/15 14:23:14;;;;;;;2.28;0.90;;;;;;;;;;6253762;22;20012;-87
2024/03/15 14:25:44;;;;;;;1.92;0.70;;;;;;;;;;6252843;22;20309;-86
2024/03/15 14:28:12;;;;;;;1.15;0.90;;;;;;;;;;6253355;22;20073;-86
2024/03/15 14:30:40;;;;;;;5.22;1.10;;;;;;;;;;6279139;22;20023;-87
2024/03/15 14:33:08;;;;;;;1.98;1.10;;;;;;;;;;6251934;22;20024;-85
2024/03/15 14:35:36;;;;;;;2.13;1.13;;;;;;;;;;6251579;22;20011;-85
2024/03/15 14:38:10;;;;;;;0.70;0.70;;;;;;;;;;6267005;22;20016;-87
2024/03/15 14:40:37;;;;;;;2.25;1.00;;;;;;;;;;6251907;22;20508;-87
2024/03/15 14:43:06;;;;;;;2.70;1.00;;;;;;;;;;6251857;22;20016;-86
2024/03/15 14:45:36;;;;;;;4.30;0.80;;;;;;;;;;6251393;22;20034;-87